Time;durP1;ratioP1;P1;durP2;ratioP2;P2;SDS_P1;SDS_P2;PMS_P1;PMS_P2;Temp;Humidity;BMP_temperature;BMP_pressure;BME280_temperature;BME280_humidity;BME280_pressure;Samples;Min_cycle;Max_cycle;Signal;HPM_P1;HPM_P2
2021/12/13 00:02:24;;;;;;;1.45;1.20;;;;;;;-0.27;81.58;94650.88;5017094;28;20295;-71
2021/12/13 00:05:01;;;;;;;2.22;1.27;;;;;;;-0.32;82.04;94659.63;5030515;28;20276;-71
2021/12/13 00:07:32;;;;;;;2.53;1.15;;;;;;;-0.23;82.39;94663.38;5030853;28;20204;-70
2021/12/13 00:10:04;;;;;;;1.27;1.13;;;;;;;-0.15;82.33;94664.78;5019491;28;20859;-70
2021/12/13 00:12:36;;;;;;;1.77;1.45;;;;;;;-0.19;82.02;94663.69;5016327;28;20208;-70
2021/12/13 00:15:09;;;;;;;1.85;1.08;;;;;;;-0.20;81.23;94672.72;5030603;28;20200;-70
2021/12/13 00:17:40;;;;;;;1.27;1.10;;;;;;;-0.15;81.03;94670.09;5005472;28;20196;-72
2021/12/13 00:20:12;;;;;;;0.88;0.77;;;;;;;-0.16;81.56;94674.63;5030368;28;20208;-71
2021/12/13 00:22:43;;;;;;;2.80;1.75;;;;;;;-0.18;81.36;94671.41;5021566;28;20687;-71
2021/12/13 00:25:16;;;;;;;1.83;1.40;;;;;;;-0.18;81.83;94671.41;5023671;28;20229;-71
2021/12/13 00:27:47;;;;;;;1.63;1.35;;;;;;;-0.04;81.42;94677.84;5014537;28;20205;-71
2021/12/13 00:30:28;;;;;;;2.05;0.90;;;;;;;-0.03;81.44;94678.66;5032019;28;20197;-71
2021/12/13 00:33:07;;;;;;;1.70;1.20;;;;;;;-0.08;81.17;94671.44;5033699;28;20278;-70
2021/12/13 00:35:38;;;;;;;1.92;1.25;;;;;;;-0.06;81.40;94673.84;5011069;28;20196;-72
2021/12/13 00:38:09;;;;;;;1.33;0.98;;;;;;;0.00;79.17;94668.28;5034594;28;20197;-72
2021/12/13 00:40:40;;;;;;;2.97;1.45;;;;;;;0.04;79.65;94662.44;5020318;28;20291;-72
2021/12/13 00:43:12;;;;;;;6.38;2.15;;;;;;;0.00;80.19;94662.94;5031369;28;20193;-72
2021/12/13 00:45:50;;;;;;;2.08;1.17;;;;;;;0.08;80.31;94666.19;5034463;28;20220;-72
2021/12/13 00:48:18;;;;;;;1.23;1.13;;;;;;;-0.03;79.85;94666.16;5034076;28;20220;-72
2021/12/13 00:50:55;;;;;;;2.15;1.45;;;;;;;0.07;79.47;94672.56;5033481;28;20693;-72
2021/12/13 00:53:24;;;;;;;2.10;1.10;;;;;;;0.01;78.94;94658.41;5008617;28;21008;-72
2021/12/13 00:55:51;;;;;;;1.25;0.98;;;;;;;0.06;78.39;94665.63;5033733;28;20200;-72
2021/12/13 00:58:22;;;;;;;1.25;1.15;;;;;;;0.05;78.53;94654.19;5033982;28;20205;-72
2021/12/13 01:00:56;;;;;;;2.13;1.10;;;;;;;0.09;78.52;94654.47;5033779;28;20286;-72
2021/12/13 01:03:29;;;;;;;2.13;1.45;;;;;;;0.13;78.79;94655.56;5033155;28;20201;-75
2021/12/13 01:06:18;;;;;;;1.92;1.58;;;;;;;0.08;78.78;94658.19;5033201;28;20619;-72
2021/12/13 01:09:44;;;;;;;2.58;1.48;;;;;;;0.02;78.51;94652.03;5033329;28;20255;-76
2021/12/13 01:12:18;;;;;;;0.80;0.80;;;;;;;0.09;78.35;94649.16;5033224;28;20594;-71
2021/12/13 01:14:56;;;;;;;0.90;0.80;;;;;;;0.09;79.10;94657.13;5033548;28;20196;-72
2021/12/13 01:17:46;;;;;;;1.17;1.08;;;;;;;0.12;78.68;94653.94;5032902;28;20591;-70
2021/12/13 01:20:18;;;;;;;2.85;1.05;;;;;;;0.19;79.22;94657.97;5033067;28;21048;-71
2021/12/13 01:22:51;;;;;;;0.82;0.77;;;;;;;0.16;78.46;94649.69;5033679;28;20197;-71
2021/12/13 01:25:41;;;;;;;1.10;0.75;;;;;;;0.20;78.57;94651.56;5033173;28;20189;-71
2021/12/13 01:28:17;;;;;;;1.20;1.10;;;;;;;0.06;79.11;94660.31;5033076;28;20678;-71
2021/12/13 01:30:49;;;;;;;2.38;1.20;;;;;;;0.10;78.96;94650.75;5033054;28;20192;-72
2021/12/13 01:33:20;;;;;;;2.35;1.02;;;;;;;0.03;79.55;94660.81;5032431;28;20220;-71
2021/12/13 01:35:53;;;;;;;1.20;1.10;;;;;;;0.10;79.40;94661.41;5033194;28;20208;-71
2021/12/13 01:38:31;;;;;;;0.70;0.68;;;;;;;0.10;79.50;94664.06;5028605;28;20213;-71
2021/12/13 01:41:00;;;;;;;0.93;0.88;;;;;;;0.11;79.49;94655.81;5012862;28;20224;-70
2021/12/13 01:43:30;;;;;;;0.85;0.85;;;;;;;0.15;79.49;94658.72;5019414;28;20288;-71
2021/12/13 01:45:59;;;;;;;2.08;1.08;;;;;;;0.23;79.22;94661.72;5032655;28;20302;-70
2021/12/13 01:48:33;;;;;;;0.75;0.75;;;;;;;0.15;79.00;94658.72;5032667;28;20220;-71
2021/12/13 01:51:08;;;;;;;1.95;0.85;;;;;;;0.08;80.78;94658.19;5031041;28;20563;-71
2021/12/13 01:53:40;;;;;;;1.50;0.98;;;;;;;0.06;80.50;94655.78;5022964;28;20320;-71
2021/12/13 01:56:33;;;;;;;1.30;1.13;;;;;;;0.00;80.85;94651.53;5032625;28;20253;-72
2021/12/13 01:59:04;;;;;;;0.75;0.60;;;;;;;-0.05;81.41;94654.97;5032436;28;20299;-70
2021/12/13 02:01:32;;;;;;;1.77;1.38;;;;;;;-0.17;82.98;94661.56;5032745;28;20196;-71
2021/12/13 02:04:04;;;;;;;0.55;0.55;;;;;;;-0.09;82.37;94664.50;5032548;28;20633;-71
2021/12/13 02:06:36;;;;;;;3.00;1.10;;;;;;;-0.11;83.26;94658.66;5032380;28;20221;-70
2021/12/13 02:09:12;;;;;;;1.77;0.80;;;;;;;-0.18;82.68;94658.09;5032860;28;20587;-71
2021/12/13 02:11:42;;;;;;;2.53;0.90;;;;;;;-0.16;83.80;94663.16;5032520;28;20220;-70
2021/12/13 02:14:14;;;;;;;1.40;0.93;;;;;;;-0.25;83.69;94654.84;5026938;28;20212;-71
2021/12/13 02:17:00;;;;;;;1.05;0.95;;;;;;;-0.30;83.70;94654.06;5025393;28;20203;-72
2021/12/13 02:19:37;;;;;;;1.27;1.08;;;;;;;-0.30;84.26;94656.72;5010699;28;20220;-71
2021/12/13 02:22:40;;;;;;;0.52;0.52;;;;;;;-0.15;84.71;94648.78;5032197;28;20647;-70
2021/12/13 02:25:24;;;;;;;2.33;1.38;;;;;;;-0.27;84.13;94650.88;5029607;28;20196;-70
2021/12/13 02:28:00;;;;;;;1.38;0.93;;;;;;;-0.27;84.07;94646.31;5023744;28;20235;-71
2021/12/13 02:30:34;;;;;;;1.63;1.05;;;;;;;-0.26;83.63;94647.94;5032466;28;20262;-75
2021/12/13 02:33:04;;;;;;;2.28;0.80;;;;;;;-0.24;83.52;94659.13;5032081;28;20658;-74
2021/12/13 02:35:36;;;;;;;1.17;0.98;;;;;;;-0.09;83.95;94658.38;5025677;28;20270;-72
2021/12/13 02:38:06;;;;;;;1.17;0.98;;;;;;;-0.27;83.77;94667.63;5031867;28;20201;-71
2021/12/13 02:40:36;;;;;;;2.05;1.05;;;;;;;-0.14;83.09;94664.50;5018299;28;20221;-70
2021/12/13 02:43:05;;;;;;;2.33;1.45;;;;;;;-0.23;83.64;94662.59;5027671;28;20654;-71
2021/12/13 02:45:42;;;;;;;1.50;1.05;;;;;;;-0.22;83.15;94662.34;5022049;28;20205;-71
2021/12/13 02:48:15;;;;;;;0.55;0.55;;;;;;;-0.09;82.63;94664.50;5016613;28;20706;-71
2021/12/13 02:50:47;;;;;;;1.05;0.95;;;;;;;-0.15;82.91;94665.56;5030833;28;20200;-71
2021/12/13 02:53:18;;;;;;;1.70;1.20;;;;;;;-0.18;82.97;94665.28;4998706;28;20615;-71
2021/12/13 02:55:47;;;;;;;0.80;0.68;;;;;;;-0.08;83.10;94665.31;5025835;28;20192;-73
2021/12/13 02:58:20;;;;;;;2.78;1.00;;;;;;;-0.19;82.83;94672.47;5031260;28;20255;-72
2021/12/13 03:00:53;;;;;;;2.38;0.90;;;;;;;-0.14;82.84;94667.19;5018488;28;20204;-72
2021/12/13 03:03:29;;;;;;;0.82;0.60;;;;;;;-0.25;83.49;94665.50;5031739;28;20192;-72
2021/12/13 03:05:59;;;;;;;1.58;1.13;;;;;;;-0.29;84.06;94664.44;5031243;28;20235;-72
2021/12/13 03:08:31;;;;;;;1.38;1.08;;;;;;;-0.29;83.90;94667.09;5019908;28;20263;-72
2021/12/13 03:11:03;;;;;;;1.55;1.10;;;;;;;-0.16;84.48;94663.97;5030610;28;20200;-71
2021/12/13 03:13:31;;;;;;;1.55;1.40;;;;;;;-0.32;84.76;94669.47;5030901;28;20659;-70
2021/12/13 03:16:03;;;;;;;1.40;1.25;;;;;;;-0.37;84.36;94667.56;5031045;28;20212;-71
2021/12/13 03:18:38;;;;;;;1.25;1.08;;;;;;;-0.42;85.40;94670.22;5031058;28;20201;-71
2021/12/13 03:22:03;;;;;;;0.73;0.73;;;;;;;-0.31;85.26;94666.56;5031075;28;20715;-71
2021/12/13 03:24:52;;;;;;;2.38;1.48;;;;;;;-0.33;85.75;94666.00;4984258;28;20552;-72
2021/12/13 03:27:34;;;;;;;1.30;1.15;;;;;;;-0.31;85.63;94665.75;5005493;28;20252;-71
2021/12/13 03:30:07;;;;;;;1.33;1.15;;;;;;;-0.40;86.55;94668.88;5027814;28;20196;-71
2021/12/13 03:32:40;;;;;;;0.93;0.90;;;;;;;-0.35;86.16;94670.78;5021254;28;20718;-71
2021/12/13 03:35:13;;;;;;;1.75;0.88;;;;;;;-0.40;86.14;94673.41;5024876;28;20323;-70
2021/12/13 03:37:43;;;;;;;2.20;1.48;;;;;;;-0.39;86.46;94675.81;5030859;28;20639;-71
2021/12/13 03:40:14;;;;;;;1.58;0.90;;;;;;;-0.37;86.73;94684.34;5020138;28;20283;-71
2021/12/13 03:42:47;;;;;;;1.95;1.27;;;;;;;-0.52;86.47;94676.28;5023694;28;20738;-71
2021/12/13 03:45:18;;;;;;;1.45;1.35;;;;;;;-0.48;86.79;94671.25;5022704;28;20201;-72
2021/12/13 03:47:52;;;;;;;1.70;1.25;;;;;;;-0.47;87.29;94672.84;5025653;28;20224;-71
2021/12/13 03:50:25;;;;;;;2.00;1.38;;;;;;;-0.50;87.05;94665.38;5030625;28;20208;-71
2021/12/13 03:52:57;;;;;;;1.48;1.20;;;;;;;-0.53;87.57;94679.97;5027031;28;20259;-71
2021/12/13 03:55:26;;;;;;;2.33;1.25;;;;;;;-0.47;87.61;94675.50;5021570;28;20192;-71
2021/12/13 03:58:01;;;;;;;3.65;1.70;;;;;;;-0.58;87.61;94671.19;5030399;28;20204;-71
2021/12/13 04:00:31;;;;;;;2.75;1.38;;;;;;;-0.41;87.84;94683.25;5030018;28;20195;-71
2021/12/13 04:03:01;;;;;;;1.73;1.20;;;;;;;-0.46;88.08;94675.25;4998474;28;20205;-71
2021/12/13 04:05:31;;;;;;;1.65;1.38;;;;;;;-0.48;87.45;94676.56;5011031;28;20611;-71
2021/12/13 04:08:02;;;;;;;1.92;1.55;;;;;;;-0.51;88.00;94672.56;5017932;28;20236;-71
2021/12/13 04:10:34;;;;;;;1.98;1.35;;;;;;;-0.56;87.70;94674.41;5029103;28;20242;-72
2021/12/13 04:13:11;;;;;;;1.67;1.27;;;;;;;-0.58;88.21;94681.81;5010886;28;20619;-70
2021/12/13 04:16:00;;;;;;;1.70;1.20;;;;;;;-0.41;88.60;94671.84;5026709;28;20196;-73
2021/12/13 04:19:06;;;;;;;5.32;2.08;;;;;;;-0.47;87.88;94678.16;5030336;28;20216;-72
2021/12/13 04:21:35;;;;;;;2.42;1.50;;;;;;;-0.49;87.89;94685.59;5013427;28;20196;-71
2021/12/13 04:24:06;;;;;;;4.50;1.52;;;;;;;-0.50;87.92;94678.69;5016803;28;20290;-72
2021/12/13 04:26:39;;;;;;;3.90;1.85;;;;;;;-0.34;87.10;94687.56;5030681;28;20216;-72
2021/12/13 04:29:14;;;;;;;1.70;1.08;;;;;;;-0.43;87.68;94688.06;5006062;28;20250;-72
2021/12/13 04:31:41;;;;;;;2.45;1.42;;;;;;;-0.40;87.71;94686.72;5030266;28;20196;-72
2021/12/13 04:34:09;;;;;;;3.20;1.58;;;;;;;-0.35;87.78;94702.72;5027345;28;20213;-71
2021/12/13 04:36:40;;;;;;;1.83;1.65;;;;;;;-0.43;87.82;94692.56;5026335;28;20221;-71
2021/12/13 04:39:13;;;;;;;2.22;1.60;;;;;;;-0.39;88.28;94696.28;5020475;28;20287;-70
2021/12/13 04:41:44;;;;;;;4.25;1.73;;;;;;;-0.51;88.34;94693.84;5015727;28;20205;-71
2021/12/13 04:44:17;;;;;;;2.20;1.40;;;;;;;-0.23;88.29;94711.28;5030512;28;20200;-71
2021/12/13 04:46:48;;;;;;;2.45;1.67;;;;;;;-0.36;88.10;94711.75;5004325;28;20274;-70
2021/12/13 04:49:19;;;;;;;1.75;1.25;;;;;;;-0.46;88.54;94703.72;5030106;28;20224;-70
2021/12/13 04:51:56;;;;;;;2.78;2.03;;;;;;;-0.46;88.52;94717.03;5030378;28;20196;-71
2021/12/13 04:54:25;;;;;;;3.85;2.40;;;;;;;-0.50;88.58;94711.41;5029729;28;20248;-70
2021/12/13 04:56:55;;;;;;;1.73;1.63;;;;;;;-0.44;89.04;94705.06;5030236;28;20201;-70
2021/12/13 04:59:25;;;;;;;2.13;1.52;;;;;;;-0.56;89.04;94716.97;5029925;28;20204;-70
2021/12/13 05:01:55;;;;;;;2.05;1.75;;;;;;;-0.59;89.45;94712.94;5029546;28;20571;-72
2021/12/13 05:04:23;;;;;;;4.50;3.38;;;;;;;-0.53;89.14;94708.44;5028667;28;20485;-71
2021/12/13 05:06:53;;;;;;;2.55;1.33;;;;;;;-0.48;89.24;94719.13;5029904;28;20232;-72
2021/12/13 05:09:22;;;;;;;3.63;1.83;;;;;;;-0.48;89.76;94713.81;5024255;28;20668;-71
2021/12/13 05:11:54;;;;;;;3.47;2.17;;;;;;;-0.42;89.59;94718.91;5023299;28;20200;-72
2021/12/13 05:14:33;;;;;;;3.58;2.28;;;;;;;-0.49;89.79;94710.34;5007237;28;20201;-75
2021/12/13 05:17:10;;;;;;;3.60;2.55;;;;;;;-0.50;89.35;94721.25;5033262;28;20201;-72
2021/12/13 05:19:40;;;;;;;2.35;2.10;;;;;;;-0.47;89.04;94718.06;5032773;28;20274;-70
2021/12/13 05:22:10;;;;;;;1.83;1.48;;;;;;;-0.53;89.23;94730.53;5032740;28;20212;-73
2021/12/13 05:24:44;;;;;;;2.00;1.40;;;;;;;-0.50;89.01;94729.22;5035152;28;20204;-70
2021/12/13 05:27:14;;;;;;;3.85;2.33;;;;;;;-0.45;88.76;94730.06;5036189;28;20212;-71
2021/12/13 05:29:46;;;;;;;3.33;1.80;;;;;;;-0.47;88.53;94726.84;5035205;28;20238;-71
2021/12/13 05:32:19;;;;;;;2.10;1.25;;;;;;;-0.31;87.53;94724.28;5007482;28;20196;-71
2021/12/13 05:34:49;;;;;;;1.95;1.67;;;;;;;-0.38;87.52;94725.31;5032735;28;20196;-71
2021/12/13 05:37:18;;;;;;;1.75;1.30;;;;;;;-0.37;87.42;94736.75;5032778;28;20205;-71
2021/12/13 05:39:58;;;;;;;2.50;1.75;;;;;;;-0.44;87.46;94738.84;5025185;28;20712;-71
2021/12/13 05:42:36;;;;;;;2.05;1.38;;;;;;;-0.47;87.58;94736.69;5024278;28;20192;-70
2021/12/13 05:45:08;;;;;;;3.00;1.65;;;;;;;-0.49;87.75;94738.81;5032975;28;20631;-70
2021/12/13 05:47:36;;;;;;;4.38;2.83;;;;;;;-0.50;88.06;94742.53;5032220;28;20298;-71
2021/12/13 05:50:05;;;;;;;4.47;2.17;;;;;;;-0.47;87.84;94742.03;5006620;28;20207;-71
2021/12/13 05:52:35;;;;;;;1.70;1.60;;;;;;;-0.44;87.30;94746.84;5032159;28;20254;-71
2021/12/13 05:55:08;;;;;;;6.10;2.92;;;;;;;-0.36;87.54;94741.03;5032564;28;20258;-72
2021/12/13 05:57:46;;;;;;;3.47;2.05;;;;;;;-0.42;87.29;94744.72;5030745;28;20189;-71
2021/12/13 06:00:23;;;;;;;5.13;2.35;;;;;;;-0.33;87.12;94751.16;5006879;28;20209;-70
2021/12/13 06:03:01;;;;;;;2.50;1.70;;;;;;;-0.30;87.13;94750.66;5021158;28;20544;-72
2021/12/13 06:05:32;;;;;;;2.58;1.88;;;;;;;-0.39;86.86;94755.63;5032000;28;20192;-70
2021/12/13 06:08:02;;;;;;;3.75;2.58;;;;;;;-0.34;87.38;94768.19;5026753;28;20221;-72
2021/12/13 06:10:40;;;;;;;3.85;1.83;;;;;;;-0.32;86.72;94774.06;5005134;28;20216;-71
2021/12/13 06:13:12;;;;;;;3.65;2.30;;;;;;;-0.33;87.41;94775.09;5028783;28;20655;-70
2021/12/13 06:15:44;;;;;;;4.18;2.53;;;;;;;-0.32;88.49;94782.03;5029932;28;20628;-70
2021/12/13 06:18:19;;;;;;;3.97;2.15;;;;;;;-0.34;87.61;94773.50;5032317;28;20196;-69
2021/12/13 06:20:54;;;;;;;1.52;1.27;;;;;;;-0.32;87.52;94776.72;5018085;28;20223;-71
2021/12/13 06:23:23;;;;;;;6.53;3.75;;;;;;;-0.31;88.18;94778.31;5016240;28;20197;-72
2021/12/13 06:25:57;;;;;;;6.68;2.78;;;;;;;-0.15;87.95;94782.69;5032037;28;20246;-70
2021/12/13 06:28:27;;;;;;;2.65;1.42;;;;;;;-0.33;87.78;94777.78;5019032;28;20360;-71
2021/12/13 06:31:01;;;;;;;3.88;2.17;;;;;;;-0.31;87.92;94783.66;5031935;28;20258;-73
2021/12/13 06:33:30;;;;;;;3.05;1.67;;;;;;;-0.33;88.49;94788.41;5018445;28;20220;-73
2021/12/13 06:35:59;;;;;;;4.90;2.47;;;;;;;-0.35;88.82;94782.53;5017020;28;20201;-73
2021/12/13 06:38:37;;;;;;;4.05;2.05;;;;;;;-0.30;88.47;94790.56;5029393;28;20677;-71
2021/12/13 06:41:09;;;;;;;2.05;1.73;;;;;;;-0.35;89.17;94793.19;5014090;28;20205;-73
2021/12/13 06:43:40;;;;;;;2.40;1.55;;;;;;;-0.32;89.30;94798.00;5019637;28;20239;-72
2021/12/13 06:46:13;;;;;;;3.72;2.55;;;;;;;-0.29;88.85;94802.81;5018698;28;20209;-72
2021/12/13 06:48:43;;;;;;;3.30;2.25;;;;;;;-0.42;89.25;94803.25;5022365;28;20605;-71
2021/12/13 06:51:14;;;;;;;2.42;1.98;;;;;;;-0.36;88.68;94807.53;5027405;28;20203;-73
2021/12/13 06:53:42;;;;;;;2.97;1.65;;;;;;;-0.19;88.65;94802.88;5031552;28;20250;-74
2021/12/13 06:56:21;;;;;;;6.20;3.13;;;;;;;-0.24;88.49;94804.69;5027668;28;20652;-73
2021/12/13 06:58:55;;;;;;;9.18;4.28;;;;;;;-0.23;88.93;94806.31;5023962;28;20204;-71
2021/12/13 07:01:23;;;;;;;3.92;2.38;;;;;;;-0.26;88.45;94815.59;5005702;28;20192;-72
2021/12/13 07:03:54;;;;;;;3.53;2.50;;;;;;;-0.15;88.44;94814.63;5031063;28;20258;-72
2021/12/13 07:06:22;;;;;;;6.32;2.70;;;;;;;-0.17;88.15;94822.06;5030858;28;20192;-73
2021/12/13 07:09:04;;;;;;;5.43;3.28;;;;;;;-0.21;87.92;94826.28;5030878;28;20290;-73
2021/12/13 07:11:42;;;;;;;4.63;2.60;;;;;;;-0.18;87.99;94812.47;5031399;28;20626;-73
2021/12/13 07:14:13;;;;;;;2.78;2.22;;;;;;;-0.13;88.52;94825.81;5031158;28;20337;-74
2021/12/13 07:16:46;;;;;;;4.82;3.20;;;;;;;-0.02;87.83;94824.03;5031340;28;20197;-73
2021/12/13 07:19:19;;;;;;;3.83;2.55;;;;;;;-0.08;87.76;94809.06;4998724;28;20212;-73
2021/12/13 07:21:51;;;;;;;5.28;3.10;;;;;;;0.02;88.15;94814.44;5025491;28;20224;-74
2021/12/13 07:24:26;;;;;;;5.00;2.95;;;;;;;-0.10;88.05;94817.31;5030666;28;20188;-73
2021/12/13 07:26:57;;;;;;;4.47;2.10;;;;;;;0.00;88.70;94820.03;5030913;28;20247;-73
2021/12/13 07:29:27;;;;;;;4.45;2.80;;;;;;;-0.01;88.15;94823.78;5030362;28;20274;-73
2021/12/13 07:32:19;;;;;;;4.72;2.20;;;;;;;0.11;87.32;94822.78;5030789;28;20520;-72
2021/12/13 07:34:54;;;;;;;3.72;3.13;;;;;;;0.15;87.67;94826.50;5017358;28;20205;-72
2021/12/13 07:37:36;;;;;;;5.50;3.08;;;;;;;0.12;87.50;94829.72;5029835;28;20188;-72
2021/12/13 07:40:28;;;;;;;4.13;2.90;;;;;;;0.13;87.77;94826.00;5020980;28;20235;-74
2021/12/13 07:43:04;;;;;;;5.20;2.70;;;;;;;0.21;87.15;94833.50;5025720;28;20197;-74
2021/12/13 07:45:35;;;;;;;2.92;1.95;;;;;;;0.14;87.14;94848.88;5027767;28;20270;-77
2021/12/13 07:48:09;;;;;;;1.38;1.27;;;;;;;0.21;86.31;94844.94;5023165;28;20240;-74
2021/12/13 07:50:37;;;;;;;4.05;2.30;;;;;;;0.15;86.33;94839.81;5022259;28;20590;-79
2021/12/13 07:53:08;;;;;;;5.85;2.38;;;;;;;0.29;86.28;94835.66;5029958;28;20205;-74
2021/12/13 07:55:45;;;;;;;1.63;1.52;;;;;;;0.37;86.02;94831.72;5030286;28;20189;-72
2021/12/13 07:58:17;;;;;;;4.22;1.98;;;;;;;0.26;86.61;94842.31;4991095;28;20605;-73
2021/12/13 08:00:45;;;;;;;3.13;1.60;;;;;;;0.32;85.63;94840.47;5019578;28;20271;-72
2021/12/13 08:03:23;;;;;;;3.55;2.33;;;;;;;0.30;86.48;94834.59;5029858;28;20212;-72
2021/12/13 08:05:54;;;;;;;2.72;1.88;;;;;;;0.36;86.17;94844.22;5017370;28;20204;-72
2021/12/13 08:08:25;;;;;;;3.75;2.67;;;;;;;0.38;85.81;94834.13;5030298;28;20217;-72
2021/12/13 08:11:00;;;;;;;2.08;1.88;;;;;;;0.33;86.28;94842.06;5029880;28;20258;-72
2021/12/13 08:13:31;;;;;;;3.40;2.03;;;;;;;0.34;86.23;94843.69;5029361;28;20713;-73
2021/12/13 08:16:02;;;;;;;5.32;3.70;;;;;;;0.28;86.12;94839.38;5016357;28;20196;-74
2021/12/13 08:18:34;;;;;;;2.70;1.73;;;;;;;0.24;86.49;94848.97;5016852;28;20263;-75
2021/12/13 08:21:06;;;;;;;4.47;2.03;;;;;;;0.36;85.79;94852.22;5022574;28;20213;-76
2021/12/13 08:23:41;;;;;;;3.67;2.28;;;;;;;0.28;85.40;94844.69;5025093;28;20200;-73
2021/12/13 08:26:12;;;;;;;5.43;3.00;;;;;;;0.27;85.32;94853.78;5029546;28;20195;-72
2021/12/13 08:28:43;;;;;;;3.47;1.90;;;;;;;0.22;85.54;94832.44;5016161;28;20259;-75
2021/12/13 08:31:19;;;;;;;8.82;3.13;;;;;;;0.28;85.89;94860.69;5019067;28;20205;-74
2021/12/13 08:33:53;;;;;;;3.72;2.35;;;;;;;0.28;85.93;94850.84;5029016;28;20207;-72
2021/12/13 08:36:31;;;;;;;3.13;2.03;;;;;;;0.43;84.78;94863.44;5029573;28;20674;-74
2021/12/13 08:39:06;;;;;;;3.10;2.25;;;;;;;0.31;85.46;94850.31;5018509;28;20301;-77
2021/12/13 08:41:38;;;;;;;3.78;2.53;;;;;;;0.21;86.04;94849.47;5010305;28;20196;-76
2021/12/13 08:44:17;;;;;;;3.65;2.80;;;;;;;0.25;86.33;94855.91;5021359;28;20189;-74
2021/12/13 08:46:48;;;;;;;3.90;2.30;;;;;;;0.18;85.48;94839.31;5017161;28;20278;-75
2021/12/13 08:49:25;;;;;;;5.38;2.30;;;;;;;0.22;86.00;94856.41;5032751;28;20224;-75
2021/12/13 08:51:59;;;;;;;3.92;2.67;;;;;;;0.26;85.96;94846.84;5023033;28;20553;-73
2021/12/13 08:54:40;;;;;;;3.05;2.42;;;;;;;0.22;85.57;94840.41;5033003;28;20204;-75
2021/12/13 08:57:12;;;;;;;2.15;1.77;;;;;;;0.28;85.99;94850.03;5033640;28;20270;-75
2021/12/13 08:59:52;;;;;;;4.30;2.65;;;;;;;0.37;85.45;94853.84;5033696;28;20604;-74
2021/12/13 09:02:19;;;;;;;2.88;2.42;;;;;;;0.23;85.45;94850.00;5033641;28;20238;-74
2021/12/13 09:04:58;;;;;;;4.78;2.30;;;;;;;0.40;85.35;94855.19;5033426;28;20670;-75
2021/12/13 09:07:26;;;;;;;3.13;2.58;;;;;;;0.33;85.39;94858.06;5033520;28;20196;-75
2021/12/13 09:09:55;;;;;;;6.18;3.33;;;;;;;0.42;85.57;94864.50;5033348;28;20306;-74
2021/12/13 09:12:33;;;;;;;2.45;1.88;;;;;;;0.50;84.90;94852.56;5028979;28;20292;-74
2021/12/13 09:15:17;;;;;;;4.80;2.58;;;;;;;0.48;84.70;94847.50;5026085;28;20193;-73
2021/12/13 09:17:44;;;;;;;6.93;2.88;;;;;;;0.45;84.89;94850.66;5010313;28;20192;-73
2021/12/13 09:20:18;;;;;;;4.47;2.58;;;;;;;0.69;84.60;94857.16;5032932;28;20597;-73
2021/12/13 09:22:48;;;;;;;5.55;2.40;;;;;;;0.47;84.00;94842.41;5033328;28;20192;-72
2021/12/13 09:25:19;;;;;;;3.38;2.38;;;;;;;0.54;84.52;94849.13;5032779;28;20816;-73
2021/12/13 09:27:52;;;;;;;3.10;2.28;;;;;;;0.58;84.53;94844.88;5032514;28;20283;-73
2021/12/13 09:30:34;;;;;;;4.68;2.92;;;;;;;0.39;84.42;94841.06;5032936;28;20188;-74
2021/12/13 09:33:06;;;;;;;3.47;2.00;;;;;;;0.60;85.03;94836.63;5032978;28;20260;-74
2021/12/13 09:35:39;;;;;;;6.13;3.38;;;;;;;0.62;84.34;94835.28;5014936;28;20207;-71
2021/12/13 09:38:28;;;;;;;3.75;2.67;;;;;;;0.62;84.57;94835.28;5028363;28;20247;-71
2021/12/13 09:41:06;;;;;;;3.25;2.15;;;;;;;0.67;84.63;94842.53;5016420;28;20639;-75
2021/12/13 09:43:42;;;;;;;2.65;2.00;;;;;;;0.71;84.17;94839.06;5007097;28;20200;-71
2021/12/13 09:46:10;;;;;;;2.90;1.73;;;;;;;0.67;84.60;94835.34;5032850;28;20601;-72
2021/12/13 09:48:41;;;;;;;9.80;4.80;;;;;;;0.57;85.00;94821.94;5032202;28;20719;-71
2021/12/13 09:51:17;;;;;;;13.05;6.30;;;;;;;0.62;85.48;94831.84;5019168;28;20220;-71
2021/12/13 09:53:50;;;;;;;4.15;2.58;;;;;;;0.58;84.52;94828.88;5032515;28;20208;-74
2021/12/13 09:56:20;;;;;;;4.38;2.58;;;;;;;0.76;84.12;94835.63;5032318;28;20227;-72
2021/12/13 09:58:50;;;;;;;3.78;2.50;;;;;;;0.69;84.78;94841.19;5031697;28;20205;-72
2021/12/13 10:01:21;;;;;;;4.88;2.65;;;;;;;0.82;84.83;94829.22;5025737;28;20196;-72
2021/12/13 10:03:54;;;;;;;4.35;3.35;;;;;;;0.87;84.46;94831.13;5032242;28;20204;-71
2021/12/13 10:06:25;;;;;;;3.72;2.53;;;;;;;0.89;84.63;94831.66;5018885;28;20208;-72
2021/12/13 10:08:57;;;;;;;4.47;2.72;;;;;;;0.81;84.15;94830.31;5010612;28;20221;-77
2021/12/13 10:11:29;;;;;;;2.67;2.25;;;;;;;0.98;84.14;94832.75;5021543;28;20208;-73
2021/12/13 10:13:57;;;;;;;5.40;2.95;;;;;;;0.98;83.80;94824.75;5028339;28;20564;-71
2021/12/13 10:16:28;;;;;;;5.47;2.08;;;;;;;0.98;83.68;94838.06;5016400;28;20426;-72
2021/12/13 10:18:56;;;;;;;6.38;2.95;;;;;;;0.86;83.75;94829.50;5013785;28;20208;-73
2021/12/13 10:21:29;;;;;;;7.82;2.83;;;;;;;0.81;83.92;94832.19;5009189;28;20750;-72
2021/12/13 10:23:59;;;;;;;4.53;2.85;;;;;;;0.95;84.22;94817.28;5012329;28;20251;-72
2021/12/13 10:26:30;;;;;;;4.68;2.65;;;;;;;1.17;83.99;94812.53;5024193;28;20231;-72
2021/12/13 10:28:59;;;;;;;3.50;3.13;;;;;;;1.06;83.14;94798.38;5005786;28;20713;-73
2021/12/13 10:31:32;;;;;;;3.28;2.45;;;;;;;1.04;83.13;94813.03;5031225;28;20255;-75
2021/12/13 10:34:03;;;;;;;3.08;2.33;;;;;;;1.17;83.42;94815.19;5030004;28;20339;-73
2021/12/13 10:36:32;;;;;;;3.45;2.50;;;;;;;1.10;83.24;94814.63;5027123;28;20266;-75
2021/12/13 10:39:03;;;;;;;5.45;3.42;;;;;;;1.20;82.66;94801.34;5030755;28;20248;-72
2021/12/13 10:41:35;;;;;;;3.08;2.45;;;;;;;1.34;82.04;94810.44;5015420;28;20200;-72
2021/12/13 10:44:08;;;;;;;3.67;2.35;;;;;;;1.14;82.40;94799.72;5031387;28;20219;-72
2021/12/13 10:46:39;;;;;;;7.88;2.97;;;;;;;1.13;82.28;94800.78;5030958;28;20224;-72
2021/12/13 10:49:10;;;;;;;3.47;2.50;;;;;;;1.14;82.19;94799.72;5031105;28;20220;-73
2021/12/13 10:51:42;;;;;;;6.38;3.00;;;;;;;1.40;82.39;94806.69;5031492;28;20196;-73
2021/12/13 10:54:13;;;;;;;7.60;4.05;;;;;;;1.31;82.78;94805.63;5030977;28;20196;-73
2021/12/13 10:56:44;;;;;;;3.08;2.35;;;;;;;1.39;82.13;94794.41;5024549;28;20205;-74
2021/12/13 10:59:16;;;;;;;7.03;3.72;;;;;;;1.49;82.02;94800.84;5028894;28;20289;-74
2021/12/13 11:01:47;;;;;;;6.07;2.72;;;;;;;1.51;81.17;94798.69;5033398;28;20287;-72
2021/12/13 11:04:17;;;;;;;5.30;3.33;;;;;;;1.19;82.33;94794.41;5031490;28;20269;-73
2021/12/13 11:06:46;;;;;;;3.83;2.47;;;;;;;1.33;81.93;94802.69;5031038;28;20552;-72
2021/12/13 11:09:19;;;;;;;6.38;3.42;;;;;;;1.19;82.76;94796.28;5030688;28;20232;-74
2021/12/13 11:11:50;;;;;;;3.30;3.00;;;;;;;1.23;82.78;94798.13;5030104;28;20671;-73
2021/12/13 11:14:20;;;;;;;5.28;3.30;;;;;;;1.12;82.24;94796.50;5017780;28;20208;-74
2021/12/13 11:16:51;;;;;;;4.53;2.97;;;;;;;1.03;83.01;94793.56;5030747;28;20661;-75
2021/12/13 11:19:21;;;;;;;4.53;3.13;;;;;;;1.06;82.87;94797.59;5030653;28;20193;-73
2021/12/13 11:21:53;;;;;;;5.53;3.53;;;;;;;1.18;83.46;94800.00;5017424;28;20251;-75
2021/12/13 11:24:23;;;;;;;6.63;3.78;;;;;;;1.36;83.16;94797.63;5022357;28;20189;-71
2021/12/13 11:26:53;;;;;;;4.63;2.42;;;;;;;1.27;82.40;94799.19;5026083;28;20706;-72
2021/12/13 11:29:20;;;;;;;4.55;2.67;;;;;;;1.20;82.52;94792.53;5020474;28;20380;-75
2021/12/13 11:32:28;;;;;;;5.47;3.85;;;;;;;1.22;82.72;94801.88;5013547;28;20788;-73
2021/12/13 11:35:12;;;;;;;7.47;4.50;;;;;;;1.30;83.07;94798.69;5021640;28;20213;-72
2021/12/13 11:38:16;;;;;;;4.95;3.90;;;;;;;1.22;82.80;94780.53;5022261;28;20192;-73
2021/12/13 11:41:37;;;;;;;5.65;3.35;;;;;;;1.38;82.95;94795.47;5005441;28;20247;-73
2021/12/13 11:44:18;;;;;;;3.72;2.67;;;;;;;1.46;82.08;94785.34;4960932;28;20220;-73
2021/12/13 11:47:20;;;;;;;4.90;3.28;;;;;;;1.46;82.71;94801.38;5004474;28;20220;-71
2021/12/13 11:50:05;;;;;;;3.50;2.33;;;;;;;1.47;81.74;94797.63;4973376;28;20746;-74
2021/12/13 11:53:05;;;;;;;4.47;3.80;;;;;;;1.37;82.29;94799.22;5030439;28;20628;-73
2021/12/13 11:55:48;;;;;;;4.28;2.75;;;;;;;1.37;81.69;94799.22;5029921;28;20235;-73
2021/12/13 11:58:46;;;;;;;6.03;3.35;;;;;;;1.33;82.16;94803.50;5005787;28;20204;-76
2021/12/13 12:01:47;;;;;;;4.93;3.47;;;;;;;1.28;82.94;94805.34;5016956;28;20262;-75
2021/12/13 12:05:05;;;;;;;4.88;3.25;;;;;;;1.33;82.33;94805.34;5013936;28;20292;-77
2021/12/13 12:08:01;;;;;;;4.63;3.17;;;;;;;1.32;83.12;94799.22;5030433;28;20243;-72
2021/12/13 12:10:50;;;;;;;6.75;3.28;;;;;;;1.32;83.03;94801.09;5013729;28;20232;-72
2021/12/13 12:13:27;;;;;;;6.38;2.95;;;;;;;1.24;83.30;94805.06;5030324;28;20197;-73